Time;durP1;ratioP1;P1;durP2;ratioP2;P2;SDS_P1;SDS_P2;PMS_P1;PMS_P2;Temp;Humidity;BMP_temperature;BMP_pressure;BME280_temperature;BME280_humidity;BME280_pressure;Samples;Min_cycle;Max_cycle;Signal;HPM_P1;HPM_P2
2023/03/07 00:01:32;;;;;;;11.00;7.60;;;6.80;99.90;;;;;;4955485;28;20491;-81
2023/03/07 00:04:02;;;;;;;10.30;7.03;;;6.80;99.90;;;;;;4950748;28;20535;-81
2023/03/07 00:06:34;;;;;;;11.87;7.77;;;6.80;99.90;;;;;;4971562;28;20479;-82
2023/03/07 00:09:02;;;;;;;9.80;7.03;;;6.70;99.90;;;;;;4957958;28;20559;-82
2023/03/07 00:11:31;;;;;;;10.40;6.70;;;6.60;99.90;;;;;;4960676;28;20443;-82
2023/03/07 00:14:24;;;;;;;11.40;7.23;;;6.60;99.90;;;;;;4976932;28;20483;-82
2023/03/07 00:16:51;;;;;;;10.60;6.87;;;6.80;99.90;;;;;;4977311;28;20519;-80
2023/03/07 00:19:28;;;;;;;10.23;6.47;;;6.80;99.90;;;;;;4961831;28;20452;-80
2023/03/07 00:22:04;;;;;;;9.17;6.30;;;6.80;99.90;;;;;;4957249;28;20498;-80
2023/03/07 00:24:31;;;;;;;11.17;7.23;;;6.90;99.90;;;;;;4975055;28;21112;-81
2023/03/07 00:27:03;;;;;;;8.70;5.50;;;6.80;99.90;;;;;;4978150;28;20464;-81
2023/03/07 00:29:33;;;;;;;8.57;6.33;;;6.80;99.90;;;;;;4961396;28;20440;-79
2023/03/07 00:32:02;;;;;;;7.47;5.27;;;6.70;99.90;;;;;;4976492;28;20437;-81
2023/03/07 00:34:35;;;;;;;6.67;5.10;;;6.80;99.90;;;;;;4961672;28;20468;-81
2023/03/07 00:37:02;;;;;;;5.77;4.17;;;6.80;99.90;;;;;;4976920;28;20569;-80
2023/03/07 00:39:31;;;;;;;7.00;4.10;;;6.90;99.90;;;;;;4976163;28;20532;-81
2023/03/07 00:42:03;;;;;;;5.70;4.30;;;6.90;99.90;;;;;;4971007;28;20468;-79
2023/03/07 00:44:35;;;;;;;4.70;2.90;;;6.70;99.90;;;;;;4954600;28;20456;-81
2023/03/07 00:47:05;;;;;;;3.27;2.90;;;6.70;99.90;;;;;;4966643;28;20495;-82
2023/03/07 00:49:37;;;;;;;5.07;2.70;;;6.50;99.90;;;;;;4949183;28;20444;-81
2023/03/07 00:52:08;;;;;;;3.20;2.67;;;6.60;99.90;;;;;;4960030;28;21002;-82
2023/03/07 00:54:42;;;;;;;3.27;2.40;;;6.60;99.90;;;;;;4970612;28;20489;-81
2023/03/07 00:57:19;;;;;;;2.63;2.43;;;6.50;99.90;;;;;;4967546;28;20498;-82
2023/03/07 01:00:09;;;;;;;2.77;2.50;;;6.50;99.90;;;;;;4965047;28;20851;-81
2023/03/07 01:02:39;;;;;;;2.43;2.23;;;6.70;99.90;;;;;;4948554;28;20470;-83
2023/03/07 01:05:09;;;;;;;3.00;2.37;;;6.70;99.90;;;;;;4949016;28;20585;-82
2023/03/07 01:07:47;;;;;;;3.30;2.50;;;6.90;99.90;;;;;;4956395;28;20507;-83
2023/03/07 01:10:32;;;;;;;2.30;2.03;;;6.70;99.90;;;;;;4971841;28;20439;-80
2023/03/07 01:13:09;;;;;;;2.83;2.50;;;6.60;99.90;;;;;;4971240;28;20448;-82
2023/03/07 01:15:38;;;;;;;2.77;2.57;;;6.70;99.90;;;;;;4972669;28;20476;-81
2023/03/07 01:18:10;;;;;;;2.70;2.50;;;6.80;99.90;;;;;;4952564;28;20494;-81
2023/03/07 01:20:44;;;;;;;2.40;2.20;;;6.70;99.90;;;;;;4943994;28;20975;-80
2023/03/07 01:23:11;;;;;;;2.57;2.37;;;6.60;99.90;;;;;;4962030;28;20963;-81
2023/03/07 01:25:43;;;;;;;2.57;2.20;;;6.60;99.90;;;;;;4947206;28;20492;-82
2023/03/07 01:28:20;;;;;;;2.73;2.27;;;6.60;99.90;;;;;;4965654;28;20454;-81
2023/03/07 01:31:03;;;;;;;2.73;2.53;;;6.50;99.90;;;;;;4945229;28;20468;-82
2023/03/07 01:33:40;;;;;;;2.17;2.07;;;6.50;99.90;;;;;;4945214;28;21127;-81
2023/03/07 01:36:28;;;;;;;2.97;2.43;;;6.50;99.90;;;;;;4963383;28;20492;-82
2023/03/07 01:39:05;;;;;;;4.23;2.53;;;6.50;99.90;;;;;;4945603;28;20472;-82
2023/03/07 01:42:01;;;;;;;2.93;2.67;;;6.60;99.90;;;;;;4965213;28;20475;-81
2023/03/07 01:45:07;;;;;;;2.13;1.97;;;6.50;99.90;;;;;;4963726;28;20464;-81
2023/03/07 01:47:48;;;;;;;3.20;2.23;;;6.50;99.90;;;;;;4948854;28;20514;-81
2023/03/07 01:50:34;;;;;;;3.27;2.73;;;6.60;99.90;;;;;;4961992;28;20754;-80
2023/03/07 01:53:08;;;;;;;2.80;2.43;;;6.50;99.90;;;;;;4931061;28;21521;-81
2023/03/07 01:55:56;;;;;;;2.70;2.50;;;6.50;99.90;;;;;;4973925;28;20494;-82
2023/03/07 01:58:24;;;;;;;4.80;2.20;;;6.40;99.90;;;;;;4965646;28;20488;-82
2023/03/07 02:00:56;;;;;;;3.03;2.77;;;6.40;99.90;;;;;;4948791;28;20476;-82
2023/03/07 02:03:38;;;;;;;2.67;2.47;;;6.40;99.90;;;;;;4950677;28;20470;-83
2023/03/07 02:06:13;;;;;;;2.57;2.37;;;6.40;99.90;;;;;;4967103;28;21988;-82
2023/03/07 02:08:47;;;;;;;3.17;2.87;;;6.40;99.90;;;;;;4967318;28;20595;-82
2023/03/07 02:11:15;;;;;;;3.93;2.90;;;6.40;99.90;;;;;;4950294;28;20459;-83
2023/03/07 02:13:49;;;;;;;2.80;2.60;;;6.40;99.90;;;;;;4947816;28;20439;-81
2023/03/07 02:16:20;;;;;;;3.00;2.70;;;6.30;99.90;;;;;;4963535;28;20800;-82
2023/03/07 02:18:55;;;;;;;2.73;2.53;;;6.40;99.90;;;;;;4964535;28;20440;-82
2023/03/07 02:21:46;;;;;;;3.87;3.57;;;6.40;99.90;;;;;;4968698;28;20496;-81
2023/03/07 02:24:43;;;;;;;3.20;2.87;;;6.30;99.90;;;;;;4983851;28;20535;-82
2023/03/07 02:27:38;;;;;;;4.03;3.63;;;6.30;99.90;;;;;;4960413;28;20555;-82
2023/03/07 02:30:18;;;;;;;3.17;2.87;;;6.40;99.90;;;;;;4974448;28;20463;-81
2023/03/07 02:33:07;;;;;;;3.47;3.10;;;6.30;99.90;;;;;;4949052;28;20468;-80
2023/03/07 02:35:48;;;;;;;4.30;3.13;;;6.40;99.90;;;;;;4956174;28;20475;-81
2023/03/07 02:38:35;;;;;;;3.50;3.20;;;6.40;99.90;;;;;;4940144;28;20533;-82
2023/03/07 02:41:11;;;;;;;3.93;3.57;;;6.40;99.90;;;;;;4955526;28;20492;-83
2023/03/07 02:43:51;;;;;;;5.13;4.30;;;6.40;99.90;;;;;;4957074;28;20463;-82
2023/03/07 02:46:26;;;;;;;4.10;3.57;;;6.50;99.90;;;;;;4942990;28;20507;-81
2023/03/07 02:49:16;;;;;;;3.63;3.30;;;6.60;99.90;;;;;;4944293;28;20500;-82
2023/03/07 02:52:08;;;;;;;4.97;4.23;;;6.50;99.90;;;;;;4961185;28;20548;-81
2023/03/07 02:54:37;;;;;;;4.67;4.27;;;6.50;99.90;;;;;;4944186;28;21039;-82
2023/03/07 02:57:22;;;;;;;5.27;3.70;;;6.50;99.90;;;;;;4945722;28;20464;-82
2023/03/07 02:59:54;;;;;;;3.30;3.00;;;6.50;99.90;;;;;;4962021;28;20532;-82
2023/03/07 03:02:37;;;;;;;3.57;3.27;;;6.50;99.90;;;;;;4943611;28;20572;-82
2023/03/07 03:05:11;;;;;;;4.30;3.57;;;6.50;99.90;;;;;;4938954;28;20557;-81
2023/03/07 03:07:47;;;;;;;4.00;3.23;;;6.50;99.90;;;;;;4942763;28;20483;-82
2023/03/07 03:10:26;;;;;;;4.27;3.50;;;6.40;99.90;;;;;;4942380;28;20460;-81
2023/03/07 03:13:09;;;;;;;3.80;3.37;;;6.60;99.90;;;;;;4944320;28;20463;-82
2023/03/07 03:15:47;;;;;;;4.43;3.30;;;6.60;99.90;;;;;;4960871;28;20523;-81
2023/03/07 03:18:37;;;;;;;3.60;3.30;;;6.50;99.90;;;;;;4945288;28;20451;-83
2023/03/07 03:21:16;;;;;;;4.10;3.63;;;6.60;99.90;;;;;;4945351;28;20480;-82
2023/03/07 03:23:52;;;;;;;5.03;3.40;;;6.70;99.90;;;;;;4942082;28;20473;-81
2023/03/07 03:26:25;;;;;;;4.07;3.67;;;6.60;99.90;;;;;;4946259;28;20587;-81
2023/03/07 03:29:08;;;;;;;5.40;3.30;;;6.70;99.90;;;;;;4949199;28;20464;-82
2023/03/07 03:31:53;;;;;;;3.77;3.30;;;6.60;99.90;;;;;;4966688;28;20491;-82
2023/03/07 03:34:20;;;;;;;4.23;3.60;;;6.60;99.90;;;;;;4969373;28;20452;-82
2023/03/07 03:36:52;;;;;;;3.83;3.43;;;6.50;99.90;;;;;;4946500;28;20498;-81
2023/03/07 03:39:28;;;;;;;4.43;4.03;;;6.50;99.90;;;;;;4944943;28;22062;-81
2023/03/07 03:42:00;;;;;;;6.70;3.53;;;6.50;99.90;;;;;;4947019;28;20498;-82
2023/03/07 03:44:42;;;;;;;5.30;3.40;;;6.50;99.90;;;;;;4949096;28;20499;-80
2023/03/07 03:47:14;;;;;;;4.30;3.40;;;6.40;99.90;;;;;;4950112;28;20566;-81
2023/03/07 03:49:48;;;;;;;4.73;3.83;;;6.40;99.90;;;;;;4948523;28;20530;-82
2023/03/07 03:52:16;;;;;;;4.03;3.60;;;6.40;99.90;;;;;;4945467;28;20526;-82
2023/03/07 03:54:48;;;;;;;5.03;4.53;;;6.60;99.90;;;;;;4943989;28;20467;-82
2023/03/07 03:57:17;;;;;;;4.93;3.57;;;6.60;99.90;;;;;;4960620;28;20488;-82
2023/03/07 03:59:54;;;;;;;4.73;3.20;;;6.50;99.90;;;;;;4960800;28;20474;-82
2023/03/07 04:02:21;;;;;;;4.10;3.70;;;6.50;99.90;;;;;;4958774;28;22283;-82
2023/03/07 04:04:51;;;;;;;4.07;3.67;;;6.50;99.90;;;;;;4959350;28;20456;-81
2023/03/07 04:07:21;;;;;;;4.10;3.70;;;6.40;99.90;;;;;;4941009;28;21276;-81
2023/03/07 04:09:54;;;;;;;4.43;3.83;;;6.70;99.90;;;;;;4938850;28;20471;-80
2023/03/07 04:12:34;;;;;;;4.80;3.93;;;6.70;99.90;;;;;;4941013;28;20471;-83
2023/03/07 04:15:13;;;;;;;4.37;3.80;;;6.50;99.90;;;;;;4942911;28;20555;-82
2023/03/07 04:17:46;;;;;;;3.53;3.23;;;6.50;99.90;;;;;;4943843;28;21138;-82
2023/03/07 04:20:16;;;;;;;4.60;3.90;;;6.40;99.90;;;;;;4947432;28;21202;-83
2023/03/07 04:22:49;;;;;;;3.83;3.43;;;6.40;99.90;;;;;;4948268;28;20466;-82
2023/03/07 04:25:24;;;;;;;3.63;3.17;;;6.30;99.90;;;;;;4950342;28;21081;-82
2023/03/07 04:27:59;;;;;;;4.27;3.67;;;6.30;99.90;;;;;;4964304;28;20483;-83
2023/03/07 04:30:31;;;;;;;4.77;3.70;;;6.50;99.90;;;;;;4965135;28;20464;-82
2023/03/07 04:32:59;;;;;;;4.50;3.87;;;6.40;99.90;;;;;;4965238;28;20498;-83
2023/03/07 04:35:39;;;;;;;3.77;3.40;;;6.50;99.90;;;;;;4948951;28;20455;-82
2023/03/07 04:38:17;;;;;;;5.13;3.73;;;6.60;99.90;;;;;;4947624;28;20476;-83
2023/03/07 04:40:57;;;;;;;3.63;3.33;;;6.60;99.90;;;;;;4947058;28;20488;-83
2023/03/07 04:43:37;;;;;;;4.60;4.10;;;6.50;99.90;;;;;;4965504;28;20499;-82
2023/03/07 04:46:15;;;;;;;5.07;4.20;;;6.50;99.90;;;;;;4948203;28;20479;-82
2023/03/07 04:49:13;;;;;;;5.10;4.00;;;6.60;99.90;;;;;;4949151;28;20570;-81
2023/03/07 04:52:08;;;;;;;5.83;4.10;;;6.80;99.90;;;;;;4946253;28;20463;-81
2023/03/07 04:54:44;;;;;;;5.00;4.33;;;6.60;99.90;;;;;;4945573;28;20555;-82
2023/03/07 04:57:28;;;;;;;4.53;3.73;;;6.80;99.90;;;;;;4950462;28;20480;-81
2023/03/07 05:00:14;;;;;;;4.43;4.00;;;6.50;99.90;;;;;;4964899;28;20471;-81
2023/03/07 05:02:54;;;;;;;4.50;4.10;;;6.60;99.90;;;;;;4947495;28;20480;-79
2023/03/07 05:05:27;;;;;;;5.87;4.90;;;6.70;99.90;;;;;;4947063;28;20567;-81
2023/03/07 05:08:02;;;;;;;5.30;4.80;;;6.70;99.90;;;;;;4947929;28;20554;-82
2023/03/07 05:10:46;;;;;;;7.20;5.30;;;6.90;99.90;;;;;;4952586;28;21788;-82
2023/03/07 05:13:15;;;;;;;5.73;4.83;;;6.70;99.90;;;;;;4943938;28;20468;-81
2023/03/07 05:15:56;;;;;;;5.27;4.77;;;6.80;99.90;;;;;;4964255;28;20459;-82
2023/03/07 05:18:41;;;;;;;4.67;4.27;;;6.60;99.90;;;;;;4951686;28;20459;-81
2023/03/07 05:21:17;;;;;;;5.40;4.90;;;6.60;99.90;;;;;;4969537;28;20487;-81
2023/03/07 05:23:58;;;;;;;6.17;5.37;;;6.60;99.90;;;;;;4969607;28;20440;-83
2023/03/07 05:26:35;;;;;;;5.90;4.50;;;6.60;99.90;;;;;;4952334;28;20999;-82
2023/03/07 05:29:10;;;;;;;4.97;4.50;;;6.50;99.90;;;;;;4951816;28;20540;-82
2023/03/07 05:31:48;;;;;;;6.53;5.67;;;6.70;99.90;;;;;;4953846;28;21862;-82
2023/03/07 05:34:52;;;;;;;5.27;4.30;;;6.70;99.90;;;;;;4954641;28;20551;-82
2023/03/07 05:37:42;;;;;;;7.13;5.70;;;6.60;99.90;;;;;;4951266;28;21290;-83
2023/03/07 05:40:20;;;;;;;5.00;4.50;;;6.60;99.90;;;;;;4949662;28;20496;-82
2023/03/07 05:43:14;;;;;;;5.60;5.10;;;6.60;99.90;;;;;;4953229;28;21167;-83
2023/03/07 05:46:03;;;;;;;6.53;4.83;;;6.60;99.90;;;;;;4957851;28;20439;-83
2023/03/07 05:48:39;;;;;;;6.60;5.50;;;6.60;99.90;;;;;;4968914;28;20484;-81
2023/03/07 05:51:20;;;;;;;6.50;5.63;;;6.80;99.90;;;;;;4971150;28;20515;-80
2023/03/07 05:53:55;;;;;;;6.57;5.30;;;6.80;99.90;;;;;;4962027;28;20476;-83
2023/03/07 05:56:44;;;;;;;;;;;;;;;;;;;;;
2023/03/07 05:59:44;;;;;;;;;;;;;;;;;;;;;
2023/03/07 06:02:31;;;;;;;9.37;5.87;;;7.00;99.90;;;;;;4972009;28;20539;-82
2023/03/07 06:05:13;;;;;;;6.30;5.63;;;7.20;99.90;;;;;;4969672;28;20462;-81
2023/03/07 06:07:53;;;;;;;8.60;5.97;;;7.10;99.90;;;;;;4960725;28;20512;-83
2023/03/07 06:10:24;;;;;;;7.47;5.60;;;6.80;99.90;;;;;;4955203;28;20515;-82
2023/03/07 06:12:59;;;;;;;7.80;5.87;;;7.00;99.90;;;;;;4957468;28;20467;-81
2023/03/07 06:18:30;;;;;;;7.70;6.47;;;7.00;99.90;;;;;;4993645;23;20496;-81
2023/03/07 06:23:52;;;;;;;9.50;7.00;;;6.80;99.90;;;;;;3065563;26;20484;-83
2023/03/07 06:26:46;;;;;;;10.37;7.90;;;6.80;99.90;;;;;;4928059;29;20478;-83
2023/03/07 06:29:33;;;;;;;8.17;6.93;;;6.60;99.90;;;;;;4922742;29;20492;-81
2023/03/07 06:32:35;;;;;;;8.80;6.67;;;6.60;99.90;;;;;;4912225;29;20480;-82
2023/03/07 06:35:25;;;;;;;12.60;7.50;;;6.60;99.90;;;;;;4908040;29;20469;-80
2023/03/07 06:38:24;;;;;;;;;;;;;;;;;;;;;
2023/03/07 06:40:59;;;;;;;6.83;5.67;;;6.60;99.90;;;;;;4923130;29;20471;-81
2023/03/07 06:43:40;;;;;;;9.47;6.87;;;6.90;99.90;;;;;;4911535;29;20465;-81
2023/03/07 06:46:22;;;;;;;7.83;6.47;;;6.70;99.90;;;;;;4912585;29;20488;-80
2023/03/07 06:49:01;;;;;;;9.93;6.57;;;6.70;99.90;;;;;;4928151;29;20498;-81
2023/03/07 06:52:02;;;;;;;9.27;6.03;;;6.70;99.90;;;;;;4911877;29;20773;-81
2023/03/07 06:54:49;;;;;;;8.23;6.90;;;6.70;99.90;;;;;;4912521;29;20466;-82
2023/03/07 06:57:52;;;;;;;8.50;6.23;;;7.10;99.90;;;;;;4895880;29;20496;-81
2023/03/07 07:00:49;;;;;;;10.53;7.87;;;7.30;99.90;;;;;;4908249;29;20465;-82
2023/03/07 07:03:27;;;;;;;10.20;7.27;;;7.30;99.90;;;;;;4911063;29;20470;-83
2023/03/07 07:06:09;;;;;;;10.10;7.33;;;7.20;99.90;;;;;;4908418;29;20458;-80
2023/03/07 07:08:41;;;;;;;11.67;8.47;;;7.30;99.90;;;;;;4914831;29;20464;-80
2023/03/07 07:11:41;;;;;;;11.00;8.40;;;7.20;99.90;;;;;;4914524;29;20461;-82
2023/03/07 07:14:23;;;;;;;10.80;8.13;;;7.30;99.90;;;;;;4917098;29;20469;-83
2023/03/07 07:17:02;;;;;;;11.20;8.30;;;7.30;99.90;;;;;;4911754;29;20481;-80
2023/03/07 07:19:51;;;;;;;12.73;7.90;;;7.10;99.90;;;;;;4927769;29;20461;-80
2023/03/07 07:22:25;;;;;;;13.07;7.30;;;7.10;99.90;;;;;;4926682;28;20509;-83
2023/03/07 07:27:58;;;;;;;13.37;8.80;;;7.30;99.90;;;;;;4886541;29;20854;-81
2023/03/07 07:30:39;;;;;;;10.80;7.63;;;7.20;99.90;;;;;;4889698;29;20502;-81
2023/03/07 07:33:14;;;;;;;9.43;6.80;;;7.10;99.90;;;;;;4887869;29;20456;-81
2023/03/07 07:35:49;;;;;;;10.17;6.57;;;7.00;99.90;;;;;;4895759;29;20578;-82
2023/03/07 07:38:21;;;;;;;8.10;6.57;;;7.10;99.90;;;;;;4892526;29;20455;-81
2023/03/07 07:41:01;;;;;;;7.97;6.90;;;6.90;99.90;;;;;;4900876;29;20894;-83
2023/03/07 07:43:35;;;;;;;9.73;6.27;;;7.00;99.90;;;;;;4897931;29;21039;-81
2023/03/07 07:46:24;;;;;;;10.33;6.17;;;7.40;99.90;;;;;;4900184;29;21384;-81
2023/03/07 07:49:13;;;;;;;8.30;6.43;;;7.40;99.90;;;;;;4881338;29;20557;-80
2023/03/07 07:52:04;;;;;;;8.67;5.40;;;7.10;99.90;;;;;;4822918;29;20558;-81
2023/03/07 07:55:03;;;;;;;7.40;5.90;;;7.20;99.90;;;;;;4803989;29;20471;-82
2023/03/07 07:57:59;;;;;;;7.47;5.27;;;7.20;99.90;;;;;;4822026;29;20487;-81
2023/03/07 08:01:03;;;;;;;9.27;6.60;;;7.30;99.90;;;;;;4823576;29;20476;-80
2023/03/07 08:03:35;;;;;;;7.90;5.73;;;7.30;99.90;;;;;;4813574;29;20460;-80
2023/03/07 08:06:43;;;;;;;8.47;5.87;;;7.00;99.90;;;;;;4830735;29;20460;-80
2023/03/07 08:09:15;;;;;;;7.53;5.30;;;7.00;99.90;;;;;;4820018;29;20474;-80
2023/03/07 08:11:42;;;;;;;8.47;5.40;;;7.10;99.90;;;;;;4815465;29;20464;-81
2023/03/07 08:14:23;;;;;;;8.07;5.73;;;7.30;99.90;;;;;;4936724;23;20451;-78
2023/03/07 08:16:57;;;;;;;9.33;5.77;;;7.40;99.90;;;;;;4919087;29;20565;-81
2023/03/07 08:19:31;;;;;;;7.33;5.53;;;7.40;99.90;;;;;;4917021;29;20449;-82
2023/03/07 08:22:01;;;;;;;7.50;5.87;;;7.30;99.90;;;;;;4914485;29;21107;-81
2023/03/07 08:24:31;;;;;;;8.33;5.33;;;7.10;99.90;;;;;;4932026;29;20471;-82
2023/03/07 08:27:18;;;;;;;6.50;5.87;;;7.10;99.90;;;;;;4914182;29;20484;-82
2023/03/07 08:30:11;;;;;;;6.63;4.90;;;7.10;99.90;;;;;;4928668;29;20521;-81
2023/03/07 08:32:54;;;;;;;8.13;5.77;;;7.20;99.90;;;;;;4915433;29;20465;-81
2023/03/07 08:35:27;;;;;;;10.37;6.20;;;7.40;99.90;;;;;;4916520;29;20858;-82
2023/03/07 08:38:02;;;;;;;7.27;5.10;;;7.30;99.90;;;;;;4927000;29;20479;-82
2023/03/07 08:40:48;;;;;;;5.30;4.10;;;7.30;99.90;;;;;;4929545;29;20470;-82
2023/03/07 08:43:38;;;;;;;5.93;3.60;;;7.30;99.90;;;;;;4919264;29;20485;-82
2023/03/07 08:46:05;;;;;;;5.77;4.93;;;7.40;99.90;;;;;;4914576;29;20538;-82
2023/03/07 08:48:32;;;;;;;5.10;3.93;;;7.40;99.90;;;;;;4918403;29;20462;-83
2023/03/07 08:51:05;;;;;;;6.63;4.50;;;7.40;99.90;;;;;;4922443;29;20942;-82
2023/03/07 08:53:31;;;;;;;5.07;4.00;;;7.10;99.90;;;;;;4931886;29;20488;-82
2023/03/07 08:55:58;;;;;;;8.07;4.60;;;7.30;99.90;;;;;;4914462;29;20470;-82
2023/03/07 08:58:25;;;;;;;5.03;4.20;;;7.40;99.90;;;;;;4930617;29;20464;-81
2023/03/07 09:00:57;;;;;;;4.70;4.20;;;7.60;99.90;;;;;;4920385;29;20480;-82
2023/03/07 09:03:23;;;;;;;6.77;4.97;;;7.40;99.90;;;;;;4917422;29;20965;-81
2023/03/07 09:05:50;;;;;;;6.27;4.23;;;7.30;99.90;;;;;;4940565;29;20457;-81
2023/03/07 09:08:17;;;;;;;4.93;4.43;;;7.40;99.90;;;;;;4915074;29;20457;-81
2023/03/07 09:10:44;;;;;;;4.50;4.10;;;7.30;99.90;;;;;;4909541;29;20482;-80
2023/03/07 09:13:11;;;;;;;4.63;4.20;;;7.20;99.90;;;;;;4926682;29;20518;-80
2023/03/07 09:15:39;;;;;;;5.23;4.40;;;7.50;99.90;;;;;;4925181;28;20486;-81
2023/03/07 09:18:09;;;;;;;6.00;4.50;;;7.50;99.90;;;;;;4926342;29;20481;-80
2023/03/07 09:20:37;;;;;;;4.90;3.53;;;7.50;99.90;;;;;;4924726;29;20564;-81
2023/03/07 09:23:04;;;;;;;5.37;4.20;;;7.50;99.90;;;;;;4924277;29;20549;-82
2023/03/07 09:25:32;;;;;;;6.23;4.33;;;7.50;99.90;;;;;;4909715;29;20441;-81
2023/03/07 09:27:59;;;;;;;4.30;3.70;;;7.50;99.90;;;;;;4926363;29;20485;-80
2023/03/07 09:30:27;;;;;;;4.57;3.30;;;7.40;99.90;;;;;;4915862;29;20466;-80
2023/03/07 09:32:54;;;;;;;6.50;4.10;;;7.40;99.90;;;;;;4913775;29;20458;-79
2023/03/07 09:35:21;;;;;;;5.70;4.17;;;7.30;99.90;;;;;;4929119;29;20482;-80
2023/03/07 09:37:47;;;;;;;5.13;3.90;;;7.30;99.90;;;;;;4930107;29;20490;-80
2023/03/07 09:40:22;;;;;;;3.87;3.40;;;7.40;99.90;;;;;;4928329;29;20466;-81
2023/03/07 09:43:07;;;;;;;4.83;4.13;;;7.40;99.90;;;;;;4926522;29;20482;-82
2023/03/07 09:45:56;;;;;;;5.07;4.30;;;7.40;99.90;;;;;;4910064;29;20477;-83
2023/03/07 09:49:11;;;;;;;4.33;3.93;;;7.60;99.90;;;;;;4929574;29;20454;-80
2023/03/07 09:51:42;;;;;;;7.80;5.70;;;7.50;99.90;;;;;;4921729;29;20469;-81
2023/03/07 09:54:17;;;;;;;6.30;4.50;;;7.40;99.90;;;;;;4928291;29;20464;-81
2023/03/07 09:56:48;;;;;;;5.93;4.03;;;7.40;99.90;;;;;;4924878;29;20481;-81
2023/03/07 09:59:21;;;;;;;5.40;4.37;;;7.40;99.90;;;;;;4933090;29;20459;-80
2023/03/07 10:01:57;;;;;;;5.63;4.07;;;7.50;99.90;;;;;;4918715;29;20470;-80
2023/03/07 10:04:39;;;;;;;5.03;4.47;;;7.70;99.90;;;;;;4923425;29;20484;-81
2023/03/07 10:07:10;;;;;;;4.60;4.20;;;7.70;99.90;;;;;;4939423;29;20516;-81
2023/03/07 10:09:38;;;;;;;5.07;4.43;;;7.90;99.90;;;;;;4925609;29;21072;-80
2023/03/07 10:12:17;;;;;;;9.10;4.90;;;7.70;99.90;;;;;;4938592;29;20462;-79
2023/03/07 10:15:07;;;;;;;7.53;4.90;;;7.60;99.90;;;;;;4939264;29;20561;-79
2023/03/07 10:17:43;;;;;;;5.47;4.30;;;7.70;99.90;;;;;;4939129;29;20472;-78
2023/03/07 10:20:30;;;;;;;5.90;5.30;;;7.60;99.90;;;;;;4938778;29;20441;-80
2023/03/07 10:23:15;;;;;;;5.27;4.40;;;7.70;99.90;;;;;;4939143;29;20493;-82
2023/03/07 10:25:55;;;;;;;10.13;7.33;;;7.60;99.90;;;;;;4926871;29;20446;-80
2023/03/07 10:28:29;;;;;;;5.17;4.63;;;7.60;99.90;;;;;;4950000;28;20461;-81
2023/03/07 10:31:14;;;;;;;5.13;4.70;;;7.70;99.90;;;;;;4945961;29;20434;-81
2023/03/07 10:33:44;;;;;;;6.27;4.80;;;7.60;99.90;;;;;;4946152;29;20477;-80
2023/03/07 10:36:38;;;;;;;3.90;3.50;;;7.60;99.90;;;;;;4944492;29;20473;-80
2023/03/07 10:39:26;;;;;;;3.70;3.27;;;7.50;99.90;;;;;;4946292;29;20465;-79
2023/03/07 10:41:53;;;;;;;4.30;3.50;;;7.40;99.90;;;;;;4921666;29;20456;-80
2023/03/07 10:44:21;;;;;;;6.87;3.80;;;7.60;99.90;;;;;;4925739;29;20458;-80
2023/03/07 10:46:57;;;;;;;4.90;3.50;;;7.60;99.90;;;;;;4922048;29;20554;-81
2023/03/07 10:49:28;;;;;;;4.10;3.27;;;7.60;99.90;;;;;;4903883;29;20469;-81
2023/03/07 10:52:08;;;;;;;5.60;3.10;;;7.70;99.90;;;;;;4909961;29;20478;-81
2023/03/07 10:54:36;;;;;;;4.70;3.10;;;7.60;99.90;;;;;;4923988;29;21846;-81
2023/03/07 10:57:15;;;;;;;3.33;3.03;;;7.70;99.90;;;;;;4907701;29;20470;-81
2023/03/07 10:59:47;;;;;;;3.53;2.97;;;7.70;99.90;;;;;;4909398;29;20460;-83
2023/03/07 11:02:30;;;;;;;3.27;2.87;;;7.60;99.90;;;;;;4909133;29;20523;-81
2023/03/07 11:04:57;;;;;;;4.70;3.40;;;7.50;99.90;;;;;;4931995;29;20458;-83
2023/03/07 11:07:27;;;;;;;3.60;3.27;;;7.40;99.90;;;;;;4915015;29;20501;-81
2023/03/07 11:09:56;;;;;;;3.83;2.97;;;7.40;99.90;;;;;;4926647;29;20478;-81
2023/03/07 11:12:25;;;;;;;7.63;4.43;;;7.50;99.90;;;;;;4931180;29;20651;-82
2023/03/07 11:14:56;;;;;;;4.30;3.90;;;7.50;99.90;;;;;;4930379;29;20581;-82
2023/03/07 11:17:40;;;;;;;5.53;4.40;;;7.50;99.90;;;;;;4913972;29;20566;-81
2023/03/07 11:20:26;;;;;;;5.93;4.20;;;7.50;99.90;;;;;;4914119;29;20549;-82
2023/03/07 11:23:22;;;;;;;6.17;4.57;;;7.50;99.90;;;;;;4935667;29;20626;-82
2023/03/07 11:25:50;;;;;;;7.00;4.03;;;7.50;99.90;;;;;;4934526;29;20525;-81
2023/03/07 11:28:24;;;;;;;4.77;4.27;;;7.50;99.90;;;;;;4921074;28;20473;-81
2023/03/07 11:30:56;;;;;;;4.77;4.33;;;7.50;99.90;;;;;;4916290;29;21268;-82
2023/03/07 11:33:36;;;;;;;5.53;4.77;;;7.50;99.90;;;;;;4936713;29;20465;-83
2023/03/07 11:36:33;;;;;;;4.23;3.93;;;7.50;99.90;;;;;;4937918;29;20497;-79
2023/03/07 11:39:23;;;;;;;5.20;4.60;;;7.60;99.90;;;;;;4934028;28;20465;-81
2023/03/07 11:41:54;;;;;;;5.77;4.37;;;7.70;99.90;;;;;;4939291;29;20469;-83
2023/03/07 11:44:50;;;;;;;8.30;4.87;;;7.70;99.90;;;;;;4922493;29;21825;-82
2023/03/07 11:47:28;;;;;;;5.80;4.23;;;7.70;99.90;;;;;;4923162;29;20505;-81
2023/03/07 11:50:21;;;;;;;6.43;5.10;;;7.70;99.90;;;;;;4927284;29;20457;-81
2023/03/07 11:53:17;;;;;;;9.20;6.70;;;7.60;99.90;;;;;;4936160;29;20472;-82
2023/03/07 11:55:59;;;;;;;9.20;6.57;;;7.60;99.90;;;;;;4941664;29;20461;-82
2023/03/07 11:58:51;;;;;;;5.40;4.17;;;7.60;99.90;;;;;;4925162;29;20461;-82
2023/03/07 12:01:43;;;;;;;6.63;5.17;;;7.60;99.90;;;;;;4933834;29;20461;-81
2023/03/07 12:04:13;;;;;;;9.70;4.70;;;7.60;99.90;;;;;;4927142;29;20587;-81
2023/03/07 12:07:03;;;;;;;4.90;4.37;;;7.60;99.90;;;;;;4915565;29;20465;-81
2023/03/07 12:09:44;;;;;;;5.30;4.73;;;7.60;99.90;;;;;;4929344;29;20457;-81
2023/03/07 12:12:13;;;;;;;6.50;5.80;;;7.60;99.90;;;;;;4913401;29;20465;-81
2023/03/07 12:15:03;;;;;;;8.47;4.33;;;7.60;99.90;;;;;;4929883;29;20464;-81
2023/03/07 12:17:55;;;;;;;5.10;4.13;;;7.60;99.90;;;;;;4924327;29;20481;-81
2023/03/07 12:21:08;;;;;;;5.60;5.03;;;7.60;99.90;;;;;;4917527;29;20526;-80
2023/03/07 12:23:41;;;;;;;5.93;4.60;;;7.80;99.90;;;;;;4927785;29;20497;-81
2023/03/07 12:26:19;;;;;;;4.40;4.00;;;8.10;99.90;;;;;;4930096;29;20973;-81
2023/03/07 12:29:01;;;;;;;6.10;4.30;;;8.00;99.90;;;;;;4916474;29;20445;-82
2023/03/07 12:31:36;;;;;;;5.97;4.90;;;7.80;99.90;;;;;;4932980;29;20453;-81
2023/03/07 12:34:29;;;;;;;6.87;6.17;;;8.10;99.90;;;;;;4916445;29;20437;-83
2023/03/07 12:37:10;;;;;;;9.60;5.23;;;7.80;99.90;;;;;;4926714;29;20481;-83
2023/03/07 12:39:52;;;;;;;5.13;4.63;;;7.50;99.90;;;;;;4915529;29;20441;-81
2023/03/07 12:42:36;;;;;;;5.90;4.80;;;7.40;99.90;;;;;;4932611;29;20446;-81
2023/03/07 12:45:12;;;;;;;6.00;4.50;;;7.40;99.90;;;;;;4934181;29;20641;-82
2023/03/07 12:48:19;;;;;;;4.87;4.03;;;7.20;99.90;;;;;;4950935;29;20541;-82
2023/03/07 12:51:05;;;;;;;5.60;5.03;;;7.30;99.90;;;;;;4919385;29;20465;-81
2023/03/07 12:53:43;;;;;;;3.80;3.50;;;7.20;99.90;;;;;;4935986;29;20438;-82
2023/03/07 12:56:17;;;;;;;3.10;2.90;;;7.10;99.90;;;;;;4917072;29;20452;-81
2023/03/07 12:59:11;;;;;;;3.83;3.27;;;7.10;99.90;;;;;;4931134;29;21178;-81
2023/03/07 13:01:58;;;;;;;4.20;3.13;;;7.10;99.90;;;;;;4929684;29;20442;-82
2023/03/07 13:04:35;;;;;;;2.70;2.50;;;7.10;99.90;;;;;;4911637;29;20489;-81
2023/03/07 13:07:09;;;;;;;2.93;2.73;;;7.00;99.90;;;;;;4929989;29;20484;-80
2023/03/07 13:09:43;;;;;;;3.70;2.20;;;6.90;99.90;;;;;;4927853;29;20460;-81
2023/03/07 13:12:17;;;;;;;2.90;2.57;;;6.80;99.90;;;;;;4915050;29;20482;-82
2023/03/07 13:14:46;;;;;;;3.93;3.53;;;6.90;99.90;;;;;;4912512;29;20450;-81
2023/03/07 13:17:36;;;;;;;3.20;3.00;;;6.70;99.90;;;;;;4933860;29;20492;-80
2023/03/07 13:20:18;;;;;;;2.63;2.43;;;6.60;99.90;;;;;;4931388;29;20441;-81
2023/03/07 13:22:45;;;;;;;2.70;2.43;;;6.60;99.90;;;;;;4916983;29;20499;-81
2023/03/07 13:25:54;;;;;;;3.57;2.77;;;6.60;99.90;;;;;;4915874;29;20496;-81
2023/03/07 13:28:45;;;;;;;3.10;2.90;;;6.50;99.90;;;;;;4914858;29;20466;-80
2023/03/07 13:31:14;;;;;;;2.20;2.10;;;6.60;99.90;;;;;;4931091;29;20446;-81
2023/03/07 13:33:41;;;;;;;2.37;2.20;;;6.60;99.90;;;;;;4933019;29;20562;-81
2023/03/07 13:36:37;;;;;;;2.40;2.27;;;6.50;99.90;;;;;;4931588;29;20446;-80
2023/03/07 13:39:37;;;;;;;3.33;2.33;;;6.50;99.90;;;;;;4932443;29;21002;-81
2023/03/07 13:42:42;;;;;;;2.20;2.10;;;6.60;99.90;;;;;;4914718;29;21045;-81
2023/03/07 13:45:37;;;;;;;2.50;2.30;;;6.60;99.90;;;;;;4923390;29;20488;-81
2023/03/07 13:48:14;;;;;;;1.63;1.53;;;6.60;99.90;;;;;;4930778;29;20482;-82
2023/03/07 13:50:41;;;;;;;1.70;1.60;;;6.60;99.90;;;;;;4930823;29;20488;-81
2023/03/07 13:53:14;;;;;;;1.70;1.60;;;6.60;99.90;;;;;;4928339;29;20525;-82
2023/03/07 13:55:49;;;;;;;2.37;2.17;;;6.50;99.90;;;;;;4930448;29;21735;-82
2023/03/07 13:58:27;;;;;;;2.00;1.80;;;6.60;99.90;;;;;;4911494;29;20493;-82
2023/03/07 14:01:17;;;;;;;2.80;2.10;;;6.70;99.90;;;;;;4912654;29;20473;-82
2023/03/07 14:03:50;;;;;;;4.50;1.20;;;6.70;99.90;;;;;;4913046;29;20499;-82
2023/03/07 14:09:48;;;;;;;1.77;1.50;;;6.80;99.90;;;;;;4927817;29;20458;-82
2023/03/07 14:12:21;;;;;;;1.17;1.07;;;6.50;99.90;;;;;;4936639;29;20458;-82
2023/03/07 14:15:35;;;;;;;0.80;0.80;;;6.40;99.90;;;;;;4944876;29;20470;-82